Paulistana II — 00 — position and weather

sailwx.info

Track history (hours):
 
Tides and Currents Weather Stations Pressure Air Temp Water Temp Dewpoint Dewpoint Depression Visibility Wind Speed Wind Dir Waves Ship Positions

Paulistana II

Last reported at 2015-Apr-21 12:33 UTC. Time now 2015-Apr-21 13:11 UTC.
Position N 23°06' E 113°27'.

Length 6 m.

Type: Pollution control. MMSI: 316014038.

Date/timePositionNaut miles runAvg speedWind from/ knotsBaromVisibWave heightAir tempDewpointWater temp
2015-Apr-21 12:33N 23°06' E 113°27'661118932.4
2015-Apr-21 12:33N 31°20' E 121°40'661664.2
2015-Apr-21 11:33N 23°06' E 113°27'66143248.4
2015-Apr-21 11:32N 31°20' E 121°40'661674.6
2015-Apr-21 10:34N 23°06' E 113°27'6616553.2
2015-Apr-21 10:27N 31°20' E 121°40'661731.9
2015-Apr-21 09:33N 23°06' E 113°27'66134472.2
2015-Apr-21 09:32N 31°20' E 121°40'661673.6
2015-Apr-21 08:33N 23°06' E 113°27'661216237.9
2015-Apr-21 08:33N 31°20' E 121°40'661659.3
2015-Apr-21 07:33N 23°06' E 113°27'661158573.4
2015-Apr-21 07:33N 31°20' E 121°40'0 0.1
2015-Apr-21 06:33N 31°20' E 121°40'66151710.7
2015-Apr-21 06:33N 23°06' E 113°27'0 0.0
2015-Apr-21 05:33N 23°06' E 113°27'66029323.5
2015-Apr-21 05:31N 31°23' E 121°35'660675.0
2015-Apr-21 04:33N 23°06' E 113°27'65711824.8
2015-Apr-21 04:29N 31°23' E 121°30'657697.8
2015-Apr-21 03:33N 23°06' E 113°27'65614674.6
2015-Apr-21 03:30N 31°21' E 121°31'656694.1
2015-Apr-21 02:33N 23°06' E 113°27'65649206.5
2015-Apr-21 02:33N 31°21' E 121°31'656665.0
2015-Apr-21 01:33N 23°06' E 113°27'65610404.9
2015-Apr-21 01:30N 31°21' E 121°31'656701.7
2015-Apr-21 00:34N 23°06' E 113°27'6561181026.5
2015-Apr-21 00:33N 31°21' E 121°31'658654.6
2015-Apr-20 23:33N 23°00' E 113°31'65814802.3
2015-Apr-20 23:31N 31°21' E 121°31'0 0.0
2015-Apr-20 22:31N 31°21' E 121°31'0 0.0
2015-Apr-20 21:33N 31°21' E 121°31'0 0.0
2015-Apr-20 20:33N 31°21' E 121°31'0 0.0
2015-Apr-20 19:33N 31°21' E 121°31'0 0.0
2015-Apr-20 18:31N 31°21' E 121°31'0 0.0
2015-Apr-20 17:31N 31°21' E 121°31'0 0.0
2015-Apr-20 16:30N 31°21' E 121°31'0 0.0
2015-Apr-20 15:33N 31°21' E 121°31'0 0.0
2015-Apr-20 14:32N 31°21' E 121°31'1 1.2
2015-Apr-20 13:33N 31°22' E 121°30'4 4.1
2015-Apr-20 12:33N 31°25' E 121°34'0 0.0
2015-Apr-20 11:33N 31°25' E 121°34'0 0.0
2015-Apr-20 10:33N 31°25' E 121°34'0 0.0
2015-Apr-20 09:33N 31°25' E 121°34'55109.1
2015-Apr-20 09:03N 32°02' E 120°46'55109.1
2015-Apr-20 08:33N 31°25' E 121°34'0 0.0
2015-Apr-20 07:33N 31°25' E 121°34'0 0.0
2015-Apr-20 06:32N 31°25' E 121°34'0 0.0
2015-Apr-20 05:33N 31°25' E 121°34'0 0.1
2015-Apr-20 04:32N 31°25' E 121°34'0 0.1
2015-Apr-20 03:32N 31°25' E 121°34'6100160286.5
2015-Apr-20 03:30N 33°37' W 117°55'61006460.5
2015-Apr-20 02:33N 31°25' E 121°34'0 0.0
2015-Apr-20 01:33N 31°25' E 121°34'0 0.0
2015-Apr-20 00:33N 31°25' E 121°34'0 0.0
2015-Apr-19 23:33N 31°25' E 121°34'0 0.0
2015-Apr-19 22:32N 31°25' E 121°34'0 0.0
2015-Apr-19 21:33N 31°25' E 121°34'610036477.4
2015-Apr-19 21:23N 33°37' W 117°55'61007332.0
2015-Apr-19 20:33N 31°25' E 121°34'0 0.0
2015-Apr-19 19:33N 31°25' E 121°34'0 0.0
2015-Apr-19 18:33N 31°25' E 121°34'0 0.0
2015-Apr-19 17:33N 31°25' E 121°34'0 0.1
2015-Apr-19 16:33N 31°25' E 121°34'6653100.9
2015-Apr-19 16:20N 22°55' E 113°34'665856.2
2015-Apr-19 15:33N 31°25' E 121°34'66237225.6
2015-Apr-19 15:32N 23°01' E 113°31'6 5.9
2015-Apr-19 14:33N 23°06' E 113°27'66028993.2
2015-Apr-19 14:32N 31°25' E 121°34'0 0.1
2015-Apr-19 13:34N 31°25' E 121°34'660594349.3
2015-Apr-19 13:33N 23°06' E 113°27'0 0.1
2015-Apr-19 12:33N 23°06' E 113°27'66024015.2
2015-Apr-19 12:32N 31°25' E 121°34'0 0.0
2015-Apr-19 11:33N 31°25' E 121°34'660216138.3
2015-Apr-19 11:33N 23°06' E 113°27'660664.4
2015-Apr-19 10:33N 31°24' E 121°34'660108062.2
2015-Apr-19 10:33N 23°06' E 113°27'661663.7
2015-Apr-19 09:33N 31°22' E 121°38'66258130.7
2015-Apr-19 09:33N 23°05' E 113°26'662669.1
2015-Apr-19 08:33N 31°20' E 121°41'662119127.0
2015-Apr-19 08:33N 23°05' E 113°26'0 0.0
2015-Apr-19 07:33N 23°05' E 113°26'66222688.2
2015-Apr-19 07:32N 31°20' E 121°41'662683.8
2015-Apr-19 06:34N 23°05' E 113°26'662198577.2
2015-Apr-19 06:33N 31°20' E 121°40'662658.8
2015-Apr-19 05:33N 23°05' E 113°26'66191494.5
2015-Apr-19 05:33N 31°23' E 121°35'5 4.6
2015-Apr-19 04:33N 31°25' E 121°30'660182731.2
2015-Apr-19 04:33N 23°05' E 113°26'0 0.0
2015-Apr-19 03:33N 23°05' E 113°26'66071972.6
2015-Apr-19 03:33N 31°28' E 121°27'660665.9
2015-Apr-19 02:33N 23°05' E 113°26'659593200.0
2015-Apr-19 02:33N 31°31' E 121°22'659659.8
2015-Apr-19 01:33N 23°05' E 113°26'660148610.1
2015-Apr-19 01:33N 31°37' E 121°16'660664.6
2015-Apr-19 00:34N 23°05' E 113°26'660475411.6
2015-Apr-19 00:33N 31°39' E 121°13'0 0.1
2015-Apr-18 23:34N 31°39' E 121°13'660118858.1
2015-Apr-18 23:33N 23°05' E 113°26'0 0.0
2015-Apr-18 22:34N 23°05' E 113°26'66120167.7
2015-Apr-18 22:32N 31°40' E 121°13'609652128.4
2015-Apr-18 22:25N 33°21' W 118°19'68087936.8
2015-Apr-18 21:33N 23°05' E 113°26'63825258.2
2015-Apr-18 21:32N 31°58' E 120°02'63952.4
2015-Apr-18 21:28N 31°40' E 121°13'661732.5
2015-Apr-18 20:33N 23°05' E 113°26'641164847.6
2015-Apr-18 20:33N 31°57' E 120°10'568104.7
2015-Apr-18 20:33N 31°40' E 121°13'0 0.0
2015-Apr-18 19:33N 31°40' E 121°13'661148740.6
2015-Apr-18 19:33N 23°05' E 113°26'64626149.1
2015-Apr-18 19:32N 31°58' E 120°18'5051.2
2015-Apr-18 18:33N 31°40' E 121°13'661297462.0
2015-Apr-18 18:33N 23°05' E 113°26'661663.4
2015-Apr-18 17:33N 31°40' E 121°13'661169978.3
2015-Apr-18 17:33N 23°05' E 113°26'6577934.2
2015-Apr-18 17:28N 32°01' E 120°34'6 6.1
2015-Apr-18 16:33N 32°00' E 120°41'3461417.1
2015-Apr-18 16:33N 31°40' E 121°13'6629060.7
2015-Apr-18 16:29N 23°04' E 113°26'664711.2
2015-Apr-18 15:33N 32°02' E 120°44'3359104.2
2015-Apr-18 15:33N 31°40' E 121°13'662103607.4
2015-Apr-18 15:33N 23°04' E 113°26'662660.3
2015-Apr-18 14:32N 31°40' E 121°13'33507.8
2015-Apr-18 14:29N 32°03' E 120°45'0 0.1
2015-Apr-18 13:32N 32°03' E 120°45'33478.9
2015-Apr-18 13:27N 31°40' E 121°13'0 0.0
2015-Apr-18 12:28N 31°40' E 121°13'662717.3
2015-Apr-18 11:33N 23°04' E 113°26'662238302.5
2015-Apr-18 11:32N 31°40' E 121°13'609616842.7
2015-Apr-18 11:11N 33°21' W 118°19'60969766.8
2015-Apr-18 10:33N 31°40' E 121°13'66216101.5
2015-Apr-18 10:31N 23°04' E 113°26'6809197675.9
2015-Apr-18 10:29N 33°21' W 118°19'610765234.4
2015-Apr-18 10:23N 32°03' E 120°45'0 0.0
2015-Apr-18 09:33N 32°03' E 120°45'66513828.5
2015-Apr-18 09:30N 23°04' E 113°26'66110217.9
2015-Apr-18 09:26N 31°44' E 121°06'2123.5
2015-Apr-18 08:32N 31°60' E 120°49'66427807.1
2015-Apr-18 08:31N 23°04' E 113°26'6653821.6
2015-Apr-18 08:20N 32°03' E 120°45'1881.0
2015-Apr-18 08:06N 31°47' E 120°56'1831.6
2015-Apr-18 07:32N 32°03' E 120°45'66527499.4
2015-Apr-18 07:30N 23°04' E 113°26'1 1.0
2015-Apr-18 06:33N 23°05' E 113°26'66412314.6
2015-Apr-18 06:30N 32°03' E 120°45'664701.2
2015-Apr-18 05:33N 23°05' E 113°26'66418099.4
2015-Apr-18 05:31N 32°03' E 120°45'664688.9
2015-Apr-18 04:33N 23°05' E 113°26'6641424.6
2015-Apr-18 04:05N 32°03' E 120°45'6641210.3
2015-Apr-18 03:33N 23°05' E 113°26'66414478.8
2015-Apr-18 03:30N 32°03' E 120°45'1819.0
2015-Apr-18 02:33N 32°01' E 120°24'65250996.9
2015-Apr-18 02:32N 23°05' E 113°26'0 0.0
2015-Apr-18 01:33N 23°05' E 113°26'65145101.2
2015-Apr-18 01:32N 32°01' E 120°24'18254.2
2015-Apr-18 01:28N 32°03' E 120°45'0 0.0
2015-Apr-18 00:33N 32°03' E 120°45'664477801.3
2015-Apr-18 00:33N 23°05' E 113°26'64528305.5
2015-Apr-18 00:32N 31°57' E 120°17'10 9.8
2015-Apr-17 23:33N 31°57' E 120°06'639230058.6
2015-Apr-17 23:33N 23°05' E 113°26'66414656.8
2015-Apr-17 23:30N 32°03' E 120°45'664702.0
2015-Apr-17 22:33N 23°05' E 113°26'662340600.2
2015-Apr-17 22:33N 32°01' E 120°45'53772277.6
2015-Apr-17 20:12N 49°23' W 123°17'710.2
2015-Apr-17 19:33N 49°17' W 123°11'0 0.0
2015-Apr-17 18:33N 49°17' W 123°11'0 0.0
2015-Apr-17 17:31N 49°17' W 123°11'0 0.1
2015-Apr-17 16:33N 49°17' W 123°11'0 0.0
2015-Apr-17 15:31N 49°17' W 123°11'8 8.1
2015-Apr-17 14:33N 49°18' W 122°59'61874717.3
2015-Apr-17 13:14N 23°05' E 113°26'0 0.0
2015-Apr-17 12:33N 23°05' E 113°26'0 0.0
2015-Apr-17 11:33N 23°05' E 113°26'0 0.0
2015-Apr-17 10:33N 23°05' E 113°26'0 0.0
2015-Apr-17 09:34N 23°05' E 113°26'0 0.0
2015-Apr-17 08:33N 23°05' E 113°26'0 0.0
2015-Apr-17 07:33N 23°05' E 113°26'0 0.0
2015-Apr-17 06:34N 23°05' E 113°26'0 0.0
2015-Apr-17 05:33N 23°05' E 113°26'0 0.0
2015-Apr-17 04:33N 23°05' E 113°26'0 0.0
2015-Apr-17 03:33N 23°05' E 113°26'0 0.0
2015-Apr-17 02:32N 23°05' E 113°26'0 0.0
2015-Apr-17 01:33N 23°05' E 113°26'0 0.0
2015-Apr-17 00:33N 23°05' E 113°26'0 0.0
2015-Apr-16 23:33N 23°05' E 113°26'0 0.0
2015-Apr-16 22:32N 23°05' E 113°26'0 0.0
2015-Apr-16 21:33N 23°05' E 113°26'6173133881.0
2015-Apr-16 21:30N 49°20' W 123°16'223575195.2
2015-Apr-16 21:28N 41°30' W 071°24'22322448.7
2015-Apr-16 20:33N 49°17' W 123°11'6178364620.8
2015-Apr-16 20:32N 23°05' E 113°26'61786288.2
2015-Apr-16 19:34N 49°17' W 123°11'6178517238.4
2015-Apr-16 19:33N 23°05' E 113°26'0 0.0
2015-Apr-16 18:33N 23°05' E 113°26'6178255646.6
2015-Apr-16 18:32N 49°17' W 123°11'1 1.5
2015-Apr-16 17:33N 49°17' W 123°09'61805561959.8
2015-Apr-16 17:33N 23°05' E 113°26'0 0.0
2015-Apr-16 16:33N 23°05' E 113°26'6178211824.4
2015-Apr-16 16:32N 49°17' W 123°11'0 0.1
2015-Apr-16 15:33N 49°17' W 123°11'6178505493.4
2015-Apr-16 15:32N 23°05' E 113°26'0 0.0
2015-Apr-16 14:33N 23°05' E 113°26'6183151418.0
2015-Apr-16 14:31N 49°17' W 123°05'61836483.7
2015-Apr-16 13:33N 23°05' E 113°26'0 0.0
2015-Apr-16 12:33N 23°05' E 113°26'0 0.0
2015-Apr-16 11:33N 23°05' E 113°26'1 0.9
2015-Apr-16 10:32N 23°06' E 113°27'0 0.0
2015-Apr-16 09:33N 23°06' E 113°27'6503143.5
2015-Apr-16 09:21N 31°13' E 121°30'3 4.0
2015-Apr-16 08:33N 31°10' E 121°28'64646543.6
2015-Apr-16 08:32N 23°06' E 113°27'0 0.0
2015-Apr-16 07:33N 23°06' E 113°27'0 0.0
2015-Apr-16 06:33N 23°06' E 113°27'1 0.9
2015-Apr-16 05:32N 23°05' E 113°28'1 0.7
2015-Apr-16 04:33N 23°05' E 113°27'1 1.5
2015-Apr-16 03:33N 23°05' E 113°26'1 1.0
2015-Apr-16 02:33N 23°06' E 113°27'6421921.5
2015-Apr-16 02:13N 31°03' E 121°29'641962.7
2015-Apr-16 01:33N 23°05' E 113°28'64123799.6
2015-Apr-16 01:32N 31°03' E 121°29'0 0.0
2015-Apr-16 00:32N 31°03' E 121°29'54001023246.3
2015-Apr-16 00:32N 49°17' W 123°11'1 0.9
2015-Apr-15 23:33N 49°17' W 123°10'540230914.9
2015-Apr-15 23:23N 31°03' E 121°29'0 0.0
2015-Apr-15 22:33N 31°03' E 121°29'0 0.0
2015-Apr-15 21:33N 31°03' E 121°29'540014443.7
2015-Apr-15 21:11N 49°17' W 123°11'54008279.9
2015-Apr-15 20:31N 31°03' E 121°29'5400243020.4
2015-Apr-15 20:30N 49°18' W 123°11'0 0.0
2015-Apr-15 19:33N 49°18' W 123°11'5400178361.7
2015-Apr-15 19:31N 31°03' E 121°29'611719946.5
2015-Apr-15 19:13N 33°37' W 117°55'9701392.4
2015-Apr-15 18:31N 49°17' W 123°11'540040419.2
2015-Apr-15 18:23N 31°03' E 121°29'0 0.1
2015-Apr-15 17:27N 31°03' E 121°29'5403413851.9
2015-Apr-15 17:26N 49°16' W 123°08'2 2.3
2015-Apr-15 16:31N 49°17' W 123°11'0 0.1
2015-Apr-15 15:33N 49°17' W 123°11'54161317.5
2015-Apr-15 11:26N 32°07' E 119°55'4 4.5
2015-Apr-15 10:32N 32°03' E 119°56'4 4.1
2015-Apr-15 09:33N 32°00' E 119°59'4 4.4
2015-Apr-15 08:33N 31°58' E 120°03'5 4.7
2015-Apr-15 07:33N 31°56' E 120°09'6 5.9
2015-Apr-15 06:33N 31°57' E 120°16'7 6.6
2015-Apr-15 05:33N 32°00' E 120°22'34511603.4
2015-Apr-15 05:31N 37°43' E 121°06'4 4.5
2015-Apr-15 04:32N 37°47' E 121°10'3441239025.6
2015-Apr-15 04:32N 32°04' E 120°28'6 5.7
2015-Apr-15 03:33N 32°02' E 120°34'3464306.0
2015-Apr-15 03:28N 37°47' E 121°10'347375.1
2015-Apr-15 02:33N 32°00' E 120°42'34413037.2
2015-Apr-15 02:31N 37°44' E 121°07'344356.3
2015-Apr-15 01:33N 32°00' E 120°49'6 5.8
2015-Apr-15 00:33N 31°55' E 120°53'661661.9
2015-Apr-14 23:33N 23°06' E 113°27'658263041.7
2015-Apr-14 23:33N 31°50' E 120°55'5 5.3
2015-Apr-14 22:33N 31°47' E 120°60'6582368899.5
2015-Apr-14 22:33N 23°06' E 113°27'618255635.4
2015-Apr-14 22:26N 49°17' W 123°05'61827000.4
2015-Apr-14 21:33N 23°06' E 113°27'660237570.8
2015-Apr-14 21:33N 31°45' E 121°05'5387114744.6
2015-Apr-14 21:30N 49°17' W 123°05'53865683.0
2015-Apr-14 20:33N 31°41' E 121°10'660593713.1
2015-Apr-14 20:33N 23°06' E 113°27'61825563542.5
2015-Apr-14 20:33N 49°17' W 123°05'53855395.7
2015-Apr-14 19:33N 31°38' E 121°15'660296986.7
2015-Apr-14 19:33N 23°06' E 113°27'6182149356.8
2015-Apr-14 19:31N 49°17' W 123°05'53865634.6
2015-Apr-14 18:33N 31°33' E 121°20'65950476.3
2015-Apr-14 18:33N 23°06' E 113°27'6182196939.6
2015-Apr-14 18:31N 49°17' W 123°05'53845633.0
2015-Apr-14 17:33N 31°30' E 121°26'53842422738.5
2015-Apr-14 17:33N 49°19' W 123°05'6181529840.3
2015-Apr-14 17:33N 23°06' E 113°27'659668.6
2015-Apr-14 16:33N 31°25' E 121°31'53823229423.3
2015-Apr-14 16:33N 49°19' W 123°07'61807415792.1
2015-Apr-14 16:33N 23°06' E 113°27'61806188.6
2015-Apr-14 15:33N 49°18' W 123°07'61804449571.6
2015-Apr-14 15:33N 23°06' E 113°27'61615394.5
2015-Apr-14 15:31N 29°50' E 122°06'97923.6
2015-Apr-14 15:25N 31°23' E 121°34'0 0.0
2015-Apr-14 14:34N 31°23' E 121°34'915441.9
2015-Apr-14 14:33N 29°56' E 122°05'54341222619.5
2015-Apr-14 14:32N 49°17' W 123°05'6182824228.5
2015-Apr-14 14:32N 23°06' E 113°27'659674.6
2015-Apr-14 13:33N 31°23' E 121°34'836477.7
2015-Apr-14 13:32N 30°03' E 121°59'6191470.3
2015-Apr-14 13:07N 23°06' E 113°27'6591174.6
2015-Apr-14 12:34N 31°23' E 121°34'659124939.2
2015-Apr-14 12:33N 23°06' E 113°27'661657.6
2015-Apr-14 11:33N 31°24' E 121°36'6612379943.1
2015-Apr-14 11:33N 23°06' E 113°27'661667.0
2015-Apr-14 10:33N 31°24' E 121°36'66176772.4
2015-Apr-14 10:33N 23°06' E 113°27'6415921.1
2015-Apr-14 10:26N 31°03' E 121°29'641709.4
2015-Apr-14 09:32N 23°06' E 113°27'660169587.3
2015-Apr-14 09:32N 31°23' E 121°35'1515.0
2015-Apr-14 08:33N 31°09' E 121°27'64770537.4
2015-Apr-14 08:33N 23°05' E 113°26'66132573.9
2015-Apr-14 08:32N 31°23' E 121°35'660672.4
2015-Apr-14 07:33N 23°05' E 113°26'66184951.3
2015-Apr-14 07:32N 31°22' E 121°36'661669.8
2015-Apr-14 06:33N 23°05' E 113°26'66312553.1
2015-Apr-14 06:30N 31°23' E 121°38'663691.1
2015-Apr-14 05:32N 23°05' E 113°26'66326209.5
2015-Apr-14 05:31N 31°23' E 121°38'663692.5
2015-Apr-14 04:33N 23°05' E 113°26'6634015.3
2015-Apr-14 04:24N 31°23' E 121°38'6129.8
2015-Apr-14 04:21N 31°21' E 121°31'657835.0
2015-Apr-14 03:33N 23°05' E 113°26'65547158.1
2015-Apr-14 03:33N 31°21' E 121°27'9213.6
2015-Apr-14 03:30N 31°23' E 121°38'663702.7
2015-Apr-14 02:33N 23°05' E 113°26'66170021.6
2015-Apr-14 02:33N 31°10' E 121°52'18361.7
2015-Apr-14 02:30N 31°23' E 121°38'0 0.2
2015-Apr-14 01:34N 31°23' E 121°38'113273.0
2015-Apr-14 01:33N 31°15' E 121°46'66256717.9
2015-Apr-14 01:33N 23°05' E 113°26'618323234.3
2015-Apr-14 01:17N 49°17' W 123°05'53827466.8
2015-Apr-14 00:33N 31°20' E 121°39'660339682.5
2015-Apr-14 00:33N 23°06' E 113°27'6191229772.4
2015-Apr-14 00:32N 49°18' W 122°53'5390132911.7
2015-Apr-14 00:29N 31°20' E 121°41'2 2.2
2015-Apr-13 23:33N 31°20' E 121°39'53781759984.2
2015-Apr-13 23:33N 49°17' W 123°11'61771389818.1
2015-Apr-13 23:33N 23°06' E 113°27'66042426.6
2015-Apr-13 23:32N 31°22' E 121°36'920.5
2015-Apr-13 23:05N 31°20' E 121°25'6521227.5
2015-Apr-13 22:33N 23°06' E 113°27'66136586.5
2015-Apr-13 22:32N 31°21' E 121°39'5378496390.1
2015-Apr-13 22:31N 49°18' W 123°11'5380233356.8
2015-Apr-13 22:30N 31°26' E 121°30'659695.3
2015-Apr-13 21:33N 23°06' E 113°27'66228385.4
2015-Apr-13 21:32N 31°22' E 121°40'163478.4
2015-Apr-13 21:31N 31°30' E 121°24'53813874656.3
2015-Apr-13 21:31N 49°18' W 123°11'61776399.2
2015-Apr-13 20:33N 23°06' E 113°27'617711118252.8
2015-Apr-13 20:33N 49°17' W 123°11'5375187876.1
2015-Apr-13 20:32N 31°22' E 121°40'26107.4
2015-Apr-13 20:17N 31°37' E 121°16'53817362.8
2015-Apr-13 19:33N 49°17' W 123°11'5375439797.2
2015-Apr-13 19:33N 31°22' E 121°40'662170313.3
2015-Apr-13 19:32N 23°06' E 113°27'61776286.8
2015-Apr-13 18:33N 49°17' W 123°11'61775559098.4
2015-Apr-13 18:33N 23°06' E 113°27'66282219.7
2015-Apr-13 18:33N 31°22' E 121°40'933932452.8
2015-Apr-13 18:16N 41°29' W 071°21'22343180.2
2015-Apr-13 17:33N 49°18' W 123°11'6177855265.5
2015-Apr-13 17:33N 23°06' E 113°27'662298064.4
2015-Apr-13 17:33N 31°22' E 121°40'9340800540.2
2015-Apr-13 17:32N 41°28' W 071°21'22312278.7
2015-Apr-13 16:33N 49°18' W 123°06'5379605178.5
2015-Apr-13 16:33N 31°22' E 121°40'662238437.2
2015-Apr-13 16:33N 23°06' E 113°27'943980139.9
2015-Apr-13 16:26N 41°28' W 071°21'22312564.7
2015-Apr-13 15:33N 49°18' W 123°07'6180239222.1
2015-Apr-13 15:32N 23°06' E 113°27'9439828762.0
2015-Apr-13 15:31N 41°28' W 071°21'9340323295.3
2015-Apr-13 15:29N 31°22' E 121°40'662708.1
2015-Apr-13 14:33N 23°05' E 113°28'66221471.5
2015-Apr-13 14:32N 31°22' E 121°40'5380624790.0
2015-Apr-13 14:31N 49°17' W 123°05'223012428.0
2015-Apr-13 14:20N 41°28' W 071°21'934011654.5
2015-Apr-13 13:32N 31°22' E 121°40'66566527.2
2015-Apr-13 13:32N 22°58' E 113°32'6184636117.5
2015-Apr-13 13:31N 49°17' W 123°05'53805581.7
2015-Apr-13 12:33N 31°22' E 121°40'5380150143.1
2015-Apr-13 12:31N 49°17' W 123°05'53805497.8
2015-Apr-13 11:32N 31°22' E 121°40'5380248316.7
2015-Apr-13 11:31N 49°17' W 123°05'0 0.0
2015-Apr-13 10:31N 49°17' W 123°05'5380717350.8
2015-Apr-13 10:31N 31°22' E 121°40'1332.0
2015-Apr-13 10:07N 31°21' E 121°26'1321.9
2015-Apr-13 09:32N 31°22' E 121°40'5380276691.9
2015-Apr-13 09:31N 49°17' W 123°05'539079202.7
2015-Apr-13 09:27N 31°21' E 121°27'1112.4
2015-Apr-13 08:33N 31°22' E 121°40'5380215205.6
2015-Apr-13 08:31N 49°17' W 123°05'53891616627.9
2015-Apr-13 08:31N 31°22' E 121°29'1010.3
2015-Apr-13 07:32N 31°22' E 121°40'5380605265.3
2015-Apr-13 07:31N 49°17' W 123°05'0 0.0
2015-Apr-13 06:31N 49°17' W 123°05'0 0.0
2015-Apr-13 05:31N 49°17' W 123°05'0 0.0
2015-Apr-13 04:31N 49°17' W 123°05'539725804.3
2015-Apr-13 04:19N 31°11' E 121°29'3 3.8
2015-Apr-13 03:33N 31°09' E 121°27'5401136919.4
2015-Apr-13 03:31N 49°17' W 123°05'538016020.4
2015-Apr-13 03:11N 31°22' E 121°40'0 0.0
2015-Apr-13 02:32N 31°22' E 121°40'5380395279.3
2015-Apr-13 02:31N 49°17' W 123°05'3 3.6
2015-Apr-13 01:33N 49°18' W 123°10'5376165412.9
2015-Apr-13 01:31N 31°22' E 121°40'0 0.0
2015-Apr-13 00:33N 31°22' E 121°40'5376586438.6
2015-Apr-13 00:33N 49°18' W 123°11'2 1.9
2015-Apr-12 23:33N 49°19' W 123°09'537619353209.0
2015-Apr-12 23:33N 31°22' E 121°40'53775337.3
2015-Apr-12 22:33N 49°19' W 123°08'5377265184.6
2015-Apr-12 22:32N 31°22' E 121°40'934036037.7
2015-Apr-12 22:16N 41°28' W 071°21'22333141.7
2015-Apr-12 21:33N 49°17' W 123°10'5377395035.6
2015-Apr-12 21:32N 31°22' E 121°40'53785361.6
2015-Apr-12 20:32N 49°17' W 123°08'5378411925.6
2015-Apr-12 20:32N 31°22' E 121°40'0 0.0
2015-Apr-12 19:34N 31°22' E 121°40'53782420066.5
2015-Apr-12 19:33N 49°17' W 123°08'53785304.3
2015-Apr-12 18:33N 31°22' E 121°40'53751935040.9
2015-Apr-12 18:32N 49°18' W 123°11'0 0.4
2015-Apr-12 17:33N 49°18' W 123°11'5375372145.7
2015-Apr-12 17:33N 31°22' E 121°40'0 0.1
2015-Apr-12 16:33N 31°22' E 121°40'537669113.9
2015-Apr-12 16:28N 49°17' W 123°11'1 1.2
2015-Apr-12 15:33N 49°18' W 123°10'5376358395.9
2015-Apr-12 15:33N 31°22' E 121°40'6704099.8
2015-Apr-12 15:23N 22°50' E 113°35'9460396000.6
2015-Apr-12 15:21N 41°28' W 071°21'935011635.3
2015-Apr-12 14:33N 31°03' E 121°29'5405202685.6
2015-Apr-12 14:31N 49°17' W 123°05'6184505995.3
2015-Apr-12 14:31N 22°58' E 113°32'665140855.5
2015-Apr-12 14:30N 31°22' E 121°40'0 0.1
2015-Apr-12 13:33N 31°22' E 121°40'66291695.7
2015-Apr-12 13:32N 23°06' E 113°27'6411703.0
2015-Apr-12 13:09N 31°03' E 121°29'6411069.6
2015-Apr-12 12:34N 23°06' E 113°27'662340588.4
2015-Apr-12 12:33N 31°22' E 121°40'2245.4
2015-Apr-12 12:05N 31°03' E 121°29'6411224.4
2015-Apr-12 11:34N 23°06' E 113°27'66230178.9
2015-Apr-12 11:32N 31°22' E 121°40'1855.4
2015-Apr-12 11:12N 31°07' E 121°28'644994.7
2015-Apr-12 10:34N 23°06' E 113°27'64659672.1
2015-Apr-12 10:33N 31°10' E 121°28'16556.9
2015-Apr-12 10:31N 31°22' E 121°40'662689.3
2015-Apr-12 09:34N 23°06' E 113°27'66216789.8
2015-Apr-12 09:31N 31°22' E 121°40'662686.1
2015-Apr-12 08:33N 23°06' E 113°27'66219542.1
2015-Apr-12 08:31N 31°22' E 121°40'663686.3
2015-Apr-12 07:33N 23°05' E 113°26'66319571.4
2015-Apr-12 07:31N 31°22' E 121°40'957.7
2015-Apr-12 07:22N 31°22' E 121°30'0 0.0
2015-Apr-12 06:33N 31°22' E 121°30'65763953.9
2015-Apr-12 06:33N 23°05' E 113°26'66329117.3
2015-Apr-12 06:31N 31°22' E 121°40'663687.1
2015-Apr-12 05:33N 23°05' E 113°26'66355525.3
2015-Apr-12 05:33N 31°22' E 121°40'91794.4
2015-Apr-12 05:32N 31°22' E 121°30'657657.5
2015-Apr-12 04:32N 23°05' E 113°26'66218185.1
2015-Apr-12 04:30N 31°20' E 121°40'662696.8
2015-Apr-12 03:33N 23°05' E 113°26'66191569.3
2015-Apr-12 03:33N 31°21' E 121°38'2 2.2
2015-Apr-12 02:33N 31°22' E 121°35'66195136.6
2015-Apr-12 02:33N 23°05' E 113°26'661669.0
2015-Apr-12 01:33N 31°22' E 121°35'661118922.4
2015-Apr-12 01:33N 23°05' E 113°26'9737945.4
2015-Apr-12 01:26N 38°53' E 117°42'51765726.2
2015-Apr-12 00:32N 49°17' W 123°05'6183890337.9
2015-Apr-12 00:31N 23°05' E 113°26'6638459.3
2015-Apr-12 00:26N 31°23' E 121°38'663732.7
2015-Apr-11 23:32N 23°05' E 113°26'6639898.6
2015-Apr-11 23:28N 31°23' E 121°38'537633602.4
2015-Apr-11 23:19N 49°17' W 123°11'61788117.2
2015-Apr-11 22:33N 23°05' E 113°26'66323160.6
2015-Apr-11 22:31N 31°23' E 121°38'5376537640.6
2015-Apr-11 22:31N 49°17' W 123°11'61786465.5
2015-Apr-11 21:33N 23°05' E 113°26'66319238.3
2015-Apr-11 21:31N 31°23' E 121°38'5376569260.4
2015-Apr-11 21:31N 49°17' W 123°11'61786459.8
2015-Apr-11 20:33N 23°05' E 113°26'61803707801.3
2015-Apr-11 20:33N 49°17' W 123°10'5378165475.6
2015-Apr-11 20:31N 31°23' E 121°38'0 0.0
2015-Apr-11 19:33N 31°23' E 121°38'662297777.0
2015-Apr-11 19:33N 23°06' E 113°27'61784448132.9
2015-Apr-11 19:33N 49°19' W 123°09'61786184.8
2015-Apr-11 18:33N 23°06' E 113°27'617822240029.2
2015-Apr-11 18:33N 49°18' W 123°10'5377132586.0
2015-Apr-11 18:31N 31°23' E 121°38'53725605.7
2015-Apr-11 17:33N 49°20' W 123°15'617311110903.4
2015-Apr-11 17:33N 23°06' E 113°27'662794061.1
2015-Apr-11 17:33N 31°23' E 121°38'9388359557.7
2015-Apr-11 17:32N 41°21' W 072°18'94929785.2
2015-Apr-11 16:33N 23°06' E 113°27'662595561.9
2015-Apr-11 16:33N 31°23' E 121°38'53746449158.6
2015-Apr-11 16:33N 49°20' W 123°12'219921458.0
2015-Apr-11 16:27N 41°21' W 072°18'949210602.0
2015-Apr-11 15:33N 23°06' E 113°27'61785560128.5
2015-Apr-11 15:33N 49°19' W 123°09'538119371088.8
2015-Apr-11 15:33N 31°25' E 121°30'938091515.7
2015-Apr-11 15:27N 41°21' W 072°18'949610597.1
2015-Apr-11 14:33N 23°04' E 113°29'618111126585.9
2015-Apr-11 14:33N 49°17' W 123°05'53866463718.8
2015-Apr-11 14:33N 31°31' E 121°21'10 9.6
2015-Apr-11 13:33N 31°39' E 121°14'6645609.7
2015-Apr-11 13:26N 22°56' E 113°33'  
Track history (hours):
 
Tides and Currents Weather Stations Pressure Air Temp Water Temp Dewpoint Dewpoint Depression Visibility Wind Speed Wind Dir Waves Ship Positions

Paulistana II

Last reported at 2015-Apr-21 12:33 UTC. Time now 2015-Apr-21 13:11 UTC.
Position N 23°06' E 113°27'.

Length 6 m.

Type: Pollution control. MMSI: 316014038.

Date/timePositionNaut miles runAvg speedWind from/ knotsBaromVisibWave heightAir tempDewpointWater temp
2015-Apr-21 12:33N 23°06' E 113°27'661118932.4
2015-Apr-21 12:33N 31°20' E 121°40'661664.2
2015-Apr-21 11:33N 23°06' E 113°27'66143248.4
2015-Apr-21 11:32N 31°20' E 121°40'661674.6
2015-Apr-21 10:34N 23°06' E 113°27'6616553.2
2015-Apr-21 10:27N 31°20' E 121°40'661731.9
2015-Apr-21 09:33N 23°06' E 113°27'66134472.2
2015-Apr-21 09:32N 31°20' E 121°40'661673.6
2015-Apr-21 08:33N 23°06' E 113°27'661216237.9
2015-Apr-21 08:33N 31°20' E 121°40'661659.3
2015-Apr-21 07:33N 23°06' E 113°27'661158573.4
2015-Apr-21 07:33N 31°20' E 121°40'0 0.1
2015-Apr-21 06:33N 31°20' E 121°40'66151710.7
2015-Apr-21 06:33N 23°06' E 113°27'0 0.0
2015-Apr-21 05:33N 23°06' E 113°27'66029323.5
2015-Apr-21 05:31N 31°23' E 121°35'660675.0
2015-Apr-21 04:33N 23°06' E 113°27'65711824.8
2015-Apr-21 04:29N 31°23' E 121°30'657697.8
2015-Apr-21 03:33N 23°06' E 113°27'65614674.6
2015-Apr-21 03:30N 31°21' E 121°31'656694.1
2015-Apr-21 02:33N 23°06' E 113°27'65649206.5
2015-Apr-21 02:33N 31°21' E 121°31'656665.0
2015-Apr-21 01:33N 23°06' E 113°27'65610404.9
2015-Apr-21 01:30N 31°21' E 121°31'656701.7
2015-Apr-21 00:34N 23°06' E 113°27'6561181026.5
2015-Apr-21 00:33N 31°21' E 121°31'658654.6
2015-Apr-20 23:33N 23°00' E 113°31'65814802.3
2015-Apr-20 23:31N 31°21' E 121°31'0 0.0
2015-Apr-20 22:31N 31°21' E 121°31'0 0.0
2015-Apr-20 21:33N 31°21' E 121°31'0 0.0
2015-Apr-20 20:33N 31°21' E 121°31'0 0.0
2015-Apr-20 19:33N 31°21' E 121°31'0 0.0
2015-Apr-20 18:31N 31°21' E 121°31'0 0.0
2015-Apr-20 17:31N 31°21' E 121°31'0 0.0
2015-Apr-20 16:30N 31°21' E 121°31'0 0.0
2015-Apr-20 15:33N 31°21' E 121°31'0 0.0
2015-Apr-20 14:32N 31°21' E 121°31'1 1.2
2015-Apr-20 13:33N 31°22' E 121°30'4 4.1
2015-Apr-20 12:33N 31°25' E 121°34'0 0.0
2015-Apr-20 11:33N 31°25' E 121°34'0 0.0
2015-Apr-20 10:33N 31°25' E 121°34'0 0.0
2015-Apr-20 09:33N 31°25' E 121°34'55109.1
2015-Apr-20 09:03N 32°02' E 120°46'55109.1
2015-Apr-20 08:33N 31°25' E 121°34'0 0.0
2015-Apr-20 07:33N 31°25' E 121°34'0 0.0
2015-Apr-20 06:32N 31°25' E 121°34'0 0.0
2015-Apr-20 05:33N 31°25' E 121°34'0 0.1
2015-Apr-20 04:32N 31°25' E 121°34'0 0.1
2015-Apr-20 03:32N 31°25' E 121°34'6100160286.5
2015-Apr-20 03:30N 33°37' W 117°55'61006460.5
2015-Apr-20 02:33N 31°25' E 121°34'0 0.0
2015-Apr-20 01:33N 31°25' E 121°34'0 0.0
2015-Apr-20 00:33N 31°25' E 121°34'0 0.0
2015-Apr-19 23:33N 31°25' E 121°34'0 0.0
2015-Apr-19 22:32N 31°25' E 121°34'0 0.0
2015-Apr-19 21:33N 31°25' E 121°34'610036477.4
2015-Apr-19 21:23N 33°37' W 117°55'61007332.0
2015-Apr-19 20:33N 31°25' E 121°34'0 0.0
2015-Apr-19 19:33N 31°25' E 121°34'0 0.0
2015-Apr-19 18:33N 31°25' E 121°34'0 0.0
2015-Apr-19 17:33N 31°25' E 121°34'0 0.1
2015-Apr-19 16:33N 31°25' E 121°34'6653100.9
2015-Apr-19 16:20N 22°55' E 113°34'665856.2
2015-Apr-19 15:33N 31°25' E 121°34'66237225.6
2015-Apr-19 15:32N 23°01' E 113°31'6 5.9
2015-Apr-19 14:33N 23°06' E 113°27'66028993.2
2015-Apr-19 14:32N 31°25' E 121°34'0 0.1
2015-Apr-19 13:34N 31°25' E 121°34'660594349.3
2015-Apr-19 13:33N 23°06' E 113°27'0 0.1
2015-Apr-19 12:33N 23°06' E 113°27'66024015.2
2015-Apr-19 12:32N 31°25' E 121°34'0 0.0
2015-Apr-19 11:33N 31°25' E 121°34'660216138.3
2015-Apr-19 11:33N 23°06' E 113°27'660664.4
2015-Apr-19 10:33N 31°24' E 121°34'660108062.2
2015-Apr-19 10:33N 23°06' E 113°27'661663.7
2015-Apr-19 09:33N 31°22' E 121°38'66258130.7
2015-Apr-19 09:33N 23°05' E 113°26'662669.1
2015-Apr-19 08:33N 31°20' E 121°41'662119127.0
2015-Apr-19 08:33N 23°05' E 113°26'0 0.0
2015-Apr-19 07:33N 23°05' E 113°26'66222688.2
2015-Apr-19 07:32N 31°20' E 121°41'662683.8
2015-Apr-19 06:34N 23°05' E 113°26'662198577.2
2015-Apr-19 06:33N 31°20' E 121°40'662658.8
2015-Apr-19 05:33N 23°05' E 113°26'66191494.5
2015-Apr-19 05:33N 31°23' E 121°35'5 4.6
2015-Apr-19 04:33N 31°25' E 121°30'660182731.2
2015-Apr-19 04:33N 23°05' E 113°26'0 0.0
2015-Apr-19 03:33N 23°05' E 113°26'66071972.6
2015-Apr-19 03:33N 31°28' E 121°27'660665.9
2015-Apr-19 02:33N 23°05' E 113°26'659593200.0
2015-Apr-19 02:33N 31°31' E 121°22'659659.8
2015-Apr-19 01:33N 23°05' E 113°26'660148610.1
2015-Apr-19 01:33N 31°37' E 121°16'660664.6
2015-Apr-19 00:34N 23°05' E 113°26'660475411.6
2015-Apr-19 00:33N 31°39' E 121°13'0 0.1
2015-Apr-18 23:34N 31°39' E 121°13'660118858.1
2015-Apr-18 23:33N 23°05' E 113°26'0 0.0
2015-Apr-18 22:34N 23°05' E 113°26'66120167.7
2015-Apr-18 22:32N 31°40' E 121°13'609652128.4
2015-Apr-18 22:25N 33°21' W 118°19'68087936.8
2015-Apr-18 21:33N 23°05' E 113°26'63825258.2
2015-Apr-18 21:32N 31°58' E 120°02'63952.4
2015-Apr-18 21:28N 31°40' E 121°13'661732.5
2015-Apr-18 20:33N 23°05' E 113°26'641164847.6
2015-Apr-18 20:33N 31°57' E 120°10'568104.7
2015-Apr-18 20:33N 31°40' E 121°13'0 0.0
2015-Apr-18 19:33N 31°40' E 121°13'661148740.6
2015-Apr-18 19:33N 23°05' E 113°26'64626149.1
2015-Apr-18 19:32N 31°58' E 120°18'5051.2
2015-Apr-18 18:33N 31°40' E 121°13'661297462.0
2015-Apr-18 18:33N 23°05' E 113°26'661663.4
2015-Apr-18 17:33N 31°40' E 121°13'661169978.3
2015-Apr-18 17:33N 23°05' E 113°26'6577934.2
2015-Apr-18 17:28N 32°01' E 120°34'6 6.1
2015-Apr-18 16:33N 32°00' E 120°41'3461417.1
2015-Apr-18 16:33N 31°40' E 121°13'6629060.7
2015-Apr-18 16:29N 23°04' E 113°26'664711.2
2015-Apr-18 15:33N 32°02' E 120°44'3359104.2
2015-Apr-18 15:33N 31°40' E 121°13'662103607.4
2015-Apr-18 15:33N 23°04' E 113°26'662660.3
2015-Apr-18 14:32N 31°40' E 121°13'33507.8
2015-Apr-18 14:29N 32°03' E 120°45'0 0.1
2015-Apr-18 13:32N 32°03' E 120°45'33478.9
2015-Apr-18 13:27N 31°40' E 121°13'0 0.0
2015-Apr-18 12:28N 31°40' E 121°13'662717.3
2015-Apr-18 11:33N 23°04' E 113°26'662238302.5
2015-Apr-18 11:32N 31°40' E 121°13'609616842.7
2015-Apr-18 11:11N 33°21' W 118°19'60969766.8
2015-Apr-18 10:33N 31°40' E 121°13'66216101.5
2015-Apr-18 10:31N 23°04' E 113°26'6809197675.9
2015-Apr-18 10:29N 33°21' W 118°19'610765234.4
2015-Apr-18 10:23N 32°03' E 120°45'0 0.0
2015-Apr-18 09:33N 32°03' E 120°45'66513828.5
2015-Apr-18 09:30N 23°04' E 113°26'66110217.9
2015-Apr-18 09:26N 31°44' E 121°06'2123.5
2015-Apr-18 08:32N 31°60' E 120°49'66427807.1
2015-Apr-18 08:31N 23°04' E 113°26'6653821.6
2015-Apr-18 08:20N 32°03' E 120°45'1881.0
2015-Apr-18 08:06N 31°47' E 120°56'1831.6
2015-Apr-18 07:32N 32°03' E 120°45'66527499.4
2015-Apr-18 07:30N 23°04' E 113°26'1 1.0
2015-Apr-18 06:33N 23°05' E 113°26'66412314.6
2015-Apr-18 06:30N 32°03' E 120°45'664701.2
2015-Apr-18 05:33N 23°05' E 113°26'66418099.4
2015-Apr-18 05:31N 32°03' E 120°45'664688.9
2015-Apr-18 04:33N 23°05' E 113°26'6641424.6
2015-Apr-18 04:05N 32°03' E 120°45'6641210.3
2015-Apr-18 03:33N 23°05' E 113°26'66414478.8
2015-Apr-18 03:30N 32°03' E 120°45'1819.0
2015-Apr-18 02:33N 32°01' E 120°24'65250996.9
2015-Apr-18 02:32N 23°05' E 113°26'0 0.0
2015-Apr-18 01:33N 23°05' E 113°26'65145101.2
2015-Apr-18 01:32N 32°01' E 120°24'18254.2
2015-Apr-18 01:28N 32°03' E 120°45'0 0.0
2015-Apr-18 00:33N 32°03' E 120°45'664477801.3
2015-Apr-18 00:33N 23°05' E 113°26'64528305.5
2015-Apr-18 00:32N 31°57' E 120°17'10 9.8
2015-Apr-17 23:33N 31°57' E 120°06'639230058.6
2015-Apr-17 23:33N 23°05' E 113°26'66414656.8
2015-Apr-17 23:30N 32°03' E 120°45'664702.0
2015-Apr-17 22:33N 23°05' E 113°26'662340600.2
2015-Apr-17 22:33N 32°01' E 120°45'53772277.6
2015-Apr-17 20:12N 49°23' W 123°17'710.2
2015-Apr-17 19:33N 49°17' W 123°11'0 0.0
2015-Apr-17 18:33N 49°17' W 123°11'0 0.0
2015-Apr-17 17:31N 49°17' W 123°11'0 0.1
2015-Apr-17 16:33N 49°17' W 123°11'0 0.0
2015-Apr-17 15:31N 49°17' W 123°11'8 8.1
2015-Apr-17 14:33N 49°18' W 122°59'61874717.3
2015-Apr-17 13:14N 23°05' E 113°26'0 0.0
2015-Apr-17 12:33N 23°05' E 113°26'0 0.0
2015-Apr-17 11:33N 23°05' E 113°26'0 0.0
2015-Apr-17 10:33N 23°05' E 113°26'0 0.0
2015-Apr-17 09:34N 23°05' E 113°26'0 0.0
2015-Apr-17 08:33N 23°05' E 113°26'0 0.0
2015-Apr-17 07:33N 23°05' E 113°26'0 0.0
2015-Apr-17 06:34N 23°05' E 113°26'0 0.0
2015-Apr-17 05:33N 23°05' E 113°26'0 0.0
2015-Apr-17 04:33N 23°05' E 113°26'0 0.0
2015-Apr-17 03:33N 23°05' E 113°26'0 0.0
2015-Apr-17 02:32N 23°05' E 113°26'0 0.0
2015-Apr-17 01:33N 23°05' E 113°26'0 0.0
2015-Apr-17 00:33N 23°05' E 113°26'0 0.0
2015-Apr-16 23:33N 23°05' E 113°26'0 0.0
2015-Apr-16 22:32N 23°05' E 113°26'0 0.0
2015-Apr-16 21:33N 23°05' E 113°26'6173133881.0
2015-Apr-16 21:30N 49°20' W 123°16'223575195.2
2015-Apr-16 21:28N 41°30' W 071°24'22322448.7
2015-Apr-16 20:33N 49°17' W 123°11'6178364620.8
2015-Apr-16 20:32N 23°05' E 113°26'61786288.2
2015-Apr-16 19:34N 49°17' W 123°11'6178517238.4
2015-Apr-16 19:33N 23°05' E 113°26'0 0.0
2015-Apr-16 18:33N 23°05' E 113°26'6178255646.6
2015-Apr-16 18:32N 49°17' W 123°11'1 1.5
2015-Apr-16 17:33N 49°17' W 123°09'61805561959.8
2015-Apr-16 17:33N 23°05' E 113°26'0 0.0
2015-Apr-16 16:33N 23°05' E 113°26'6178211824.4
2015-Apr-16 16:32N 49°17' W 123°11'0 0.1
2015-Apr-16 15:33N 49°17' W 123°11'6178505493.4
2015-Apr-16 15:32N 23°05' E 113°26'0 0.0
2015-Apr-16 14:33N 23°05' E 113°26'6183151418.0
2015-Apr-16 14:31N 49°17' W 123°05'61836483.7
2015-Apr-16 13:33N 23°05' E 113°26'0 0.0
2015-Apr-16 12:33N 23°05' E 113°26'0 0.0
2015-Apr-16 11:33N 23°05' E 113°26'1 0.9
2015-Apr-16 10:32N 23°06' E 113°27'0 0.0
2015-Apr-16 09:33N 23°06' E 113°27'6503143.5
2015-Apr-16 09:21N 31°13' E 121°30'3 4.0
2015-Apr-16 08:33N 31°10' E 121°28'64646543.6
2015-Apr-16 08:32N 23°06' E 113°27'0 0.0
2015-Apr-16 07:33N 23°06' E 113°27'0 0.0
2015-Apr-16 06:33N 23°06' E 113°27'1 0.9
2015-Apr-16 05:32N 23°05' E 113°28'1 0.7
2015-Apr-16 04:33N 23°05' E 113°27'1 1.5
2015-Apr-16 03:33N 23°05' E 113°26'1 1.0
2015-Apr-16 02:33N 23°06' E 113°27'6421921.5
2015-Apr-16 02:13N 31°03' E 121°29'641962.7
2015-Apr-16 01:33N 23°05' E 113°28'64123799.6
2015-Apr-16 01:32N 31°03' E 121°29'0 0.0
2015-Apr-16 00:32N 31°03' E 121°29'54001023246.3
2015-Apr-16 00:32N 49°17' W 123°11'1 0.9
2015-Apr-15 23:33N 49°17' W 123°10'540230914.9
2015-Apr-15 23:23N 31°03' E 121°29'0 0.0
2015-Apr-15 22:33N 31°03' E 121°29'0 0.0
2015-Apr-15 21:33N 31°03' E 121°29'540014443.7
2015-Apr-15 21:11N 49°17' W 123°11'54008279.9
2015-Apr-15 20:31N 31°03' E 121°29'5400243020.4
2015-Apr-15 20:30N 49°18' W 123°11'0 0.0
2015-Apr-15 19:33N 49°18' W 123°11'5400178361.7
2015-Apr-15 19:31N 31°03' E 121°29'611719946.5
2015-Apr-15 19:13N 33°37' W 117°55'9701392.4
2015-Apr-15 18:31N 49°17' W 123°11'540040419.2
2015-Apr-15 18:23N 31°03' E 121°29'0 0.1
2015-Apr-15 17:27N 31°03' E 121°29'5403413851.9
2015-Apr-15 17:26N 49°16' W 123°08'2 2.3
2015-Apr-15 16:31N 49°17' W 123°11'0 0.1
2015-Apr-15 15:33N 49°17' W 123°11'54161317.5
2015-Apr-15 11:26N 32°07' E 119°55'4 4.5
2015-Apr-15 10:32N 32°03' E 119°56'4 4.1
2015-Apr-15 09:33N 32°00' E 119°59'4 4.4
2015-Apr-15 08:33N 31°58' E 120°03'5 4.7
2015-Apr-15 07:33N 31°56' E 120°09'6 5.9
2015-Apr-15 06:33N 31°57' E 120°16'7 6.6
2015-Apr-15 05:33N 32°00' E 120°22'34511603.4
2015-Apr-15 05:31N 37°43' E 121°06'4 4.5
2015-Apr-15 04:32N 37°47' E 121°10'3441239025.6
2015-Apr-15 04:32N 32°04' E 120°28'6 5.7
2015-Apr-15 03:33N 32°02' E 120°34'3464306.0
2015-Apr-15 03:28N 37°47' E 121°10'347375.1
2015-Apr-15 02:33N 32°00' E 120°42'34413037.2
2015-Apr-15 02:31N 37°44' E 121°07'344356.3
2015-Apr-15 01:33N 32°00' E 120°49'6 5.8
2015-Apr-15 00:33N 31°55' E 120°53'661661.9
2015-Apr-14 23:33N 23°06' E 113°27'658263041.7
2015-Apr-14 23:33N 31°50' E 120°55'5 5.3
2015-Apr-14 22:33N 31°47' E 120°60'6582368899.5
2015-Apr-14 22:33N 23°06' E 113°27'618255635.4
2015-Apr-14 22:26N 49°17' W 123°05'61827000.4
2015-Apr-14 21:33N 23°06' E 113°27'660237570.8
2015-Apr-14 21:33N 31°45' E 121°05'5387114744.6
2015-Apr-14 21:30N 49°17' W 123°05'53865683.0
2015-Apr-14 20:33N 31°41' E 121°10'660593713.1
2015-Apr-14 20:33N 23°06' E 113°27'61825563542.5
2015-Apr-14 20:33N 49°17' W 123°05'53855395.7
2015-Apr-14 19:33N 31°38' E 121°15'660296986.7
2015-Apr-14 19:33N 23°06' E 113°27'6182149356.8
2015-Apr-14 19:31N 49°17' W 123°05'53865634.6
2015-Apr-14 18:33N 31°33' E 121°20'65950476.3
2015-Apr-14 18:33N 23°06' E 113°27'6182196939.6
2015-Apr-14 18:31N 49°17' W 123°05'53845633.0
2015-Apr-14 17:33N 31°30' E 121°26'53842422738.5
2015-Apr-14 17:33N 49°19' W 123°05'6181529840.3
2015-Apr-14 17:33N 23°06' E 113°27'659668.6
2015-Apr-14 16:33N 31°25' E 121°31'53823229423.3
2015-Apr-14 16:33N 49°19' W 123°07'61807415792.1
2015-Apr-14 16:33N 23°06' E 113°27'61806188.6
2015-Apr-14 15:33N 49°18' W 123°07'61804449571.6
2015-Apr-14 15:33N 23°06' E 113°27'61615394.5
2015-Apr-14 15:31N 29°50' E 122°06'97923.6
2015-Apr-14 15:25N 31°23' E 121°34'0 0.0
2015-Apr-14 14:34N 31°23' E 121°34'915441.9
2015-Apr-14 14:33N 29°56' E 122°05'54341222619.5
2015-Apr-14 14:32N 49°17' W 123°05'6182824228.5
2015-Apr-14 14:32N 23°06' E 113°27'659674.6
2015-Apr-14 13:33N 31°23' E 121°34'836477.7
2015-Apr-14 13:32N 30°03' E 121°59'6191470.3
2015-Apr-14 13:07N 23°06' E 113°27'6591174.6
2015-Apr-14 12:34N 31°23' E 121°34'659124939.2
2015-Apr-14 12:33N 23°06' E 113°27'661657.6
2015-Apr-14 11:33N 31°24' E 121°36'6612379943.1
2015-Apr-14 11:33N 23°06' E 113°27'661667.0
2015-Apr-14 10:33N 31°24' E 121°36'66176772.4
2015-Apr-14 10:33N 23°06' E 113°27'6415921.1
2015-Apr-14 10:26N 31°03' E 121°29'641709.4
2015-Apr-14 09:32N 23°06' E 113°27'660169587.3
2015-Apr-14 09:32N 31°23' E 121°35'1515.0
2015-Apr-14 08:33N 31°09' E 121°27'64770537.4
2015-Apr-14 08:33N 23°05' E 113°26'66132573.9
2015-Apr-14 08:32N 31°23' E 121°35'660672.4
2015-Apr-14 07:33N 23°05' E 113°26'66184951.3
2015-Apr-14 07:32N 31°22' E 121°36'661669.8
2015-Apr-14 06:33N 23°05' E 113°26'66312553.1
2015-Apr-14 06:30N 31°23' E 121°38'663691.1
2015-Apr-14 05:32N 23°05' E 113°26'66326209.5
2015-Apr-14 05:31N 31°23' E 121°38'663692.5
2015-Apr-14 04:33N 23°05' E 113°26'6634015.3
2015-Apr-14 04:24N 31°23' E 121°38'6129.8
2015-Apr-14 04:21N 31°21' E 121°31'657835.0
2015-Apr-14 03:33N 23°05' E 113°26'65547158.1
2015-Apr-14 03:33N 31°21' E 121°27'9213.6
2015-Apr-14 03:30N 31°23' E 121°38'663702.7
2015-Apr-14 02:33N 23°05' E 113°26'66170021.6
2015-Apr-14 02:33N 31°10' E 121°52'18361.7
2015-Apr-14 02:30N 31°23' E 121°38'0 0.2
2015-Apr-14 01:34N 31°23' E 121°38'113273.0
2015-Apr-14 01:33N 31°15' E 121°46'66256717.9
2015-Apr-14 01:33N 23°05' E 113°26'618323234.3
2015-Apr-14 01:17N 49°17' W 123°05'53827466.8
2015-Apr-14 00:33N 31°20' E 121°39'660339682.5
2015-Apr-14 00:33N 23°06' E 113°27'6191229772.4
2015-Apr-14 00:32N 49°18' W 122°53'5390132911.7
2015-Apr-14 00:29N 31°20' E 121°41'2 2.2
2015-Apr-13 23:33N 31°20' E 121°39'53781759984.2
2015-Apr-13 23:33N 49°17' W 123°11'61771389818.1
2015-Apr-13 23:33N 23°06' E 113°27'66042426.6
2015-Apr-13 23:32N 31°22' E 121°36'920.5
2015-Apr-13 23:05N 31°20' E 121°25'6521227.5
2015-Apr-13 22:33N 23°06' E 113°27'66136586.5
2015-Apr-13 22:32N 31°21' E 121°39'5378496390.1
2015-Apr-13 22:31N 49°18' W 123°11'5380233356.8
2015-Apr-13 22:30N 31°26' E 121°30'659695.3
2015-Apr-13 21:33N 23°06' E 113°27'66228385.4
2015-Apr-13 21:32N 31°22' E 121°40'163478.4
2015-Apr-13 21:31N 31°30' E 121°24'53813874656.3
2015-Apr-13 21:31N 49°18' W 123°11'61776399.2
2015-Apr-13 20:33N 23°06' E 113°27'617711118252.8
2015-Apr-13 20:33N 49°17' W 123°11'5375187876.1
2015-Apr-13 20:32N 31°22' E 121°40'26107.4
2015-Apr-13 20:17N 31°37' E 121°16'53817362.8
2015-Apr-13 19:33N 49°17' W 123°11'5375439797.2
2015-Apr-13 19:33N 31°22' E 121°40'662170313.3
2015-Apr-13 19:32N 23°06' E 113°27'61776286.8
2015-Apr-13 18:33N 49°17' W 123°11'61775559098.4
2015-Apr-13 18:33N 23°06' E 113°27'66282219.7
2015-Apr-13 18:33N 31°22' E 121°40'933932452.8
2015-Apr-13 18:16N 41°29' W 071°21'22343180.2
2015-Apr-13 17:33N 49°18' W 123°11'6177855265.5
2015-Apr-13 17:33N 23°06' E 113°27'662298064.4
2015-Apr-13 17:33N 31°22' E 121°40'9340800540.2
2015-Apr-13 17:32N 41°28' W 071°21'22312278.7
2015-Apr-13 16:33N 49°18' W 123°06'5379605178.5
2015-Apr-13 16:33N 31°22' E 121°40'662238437.2
2015-Apr-13 16:33N 23°06' E 113°27'943980139.9
2015-Apr-13 16:26N 41°28' W 071°21'22312564.7
2015-Apr-13 15:33N 49°18' W 123°07'6180239222.1
2015-Apr-13 15:32N 23°06' E 113°27'9439828762.0
2015-Apr-13 15:31N 41°28' W 071°21'9340323295.3
2015-Apr-13 15:29N 31°22' E 121°40'662708.1
2015-Apr-13 14:33N 23°05' E 113°28'66221471.5
2015-Apr-13 14:32N 31°22' E 121°40'5380624790.0
2015-Apr-13 14:31N 49°17' W 123°05'223012428.0
2015-Apr-13 14:20N 41°28' W 071°21'934011654.5
2015-Apr-13 13:32N 31°22' E 121°40'66566527.2
2015-Apr-13 13:32N 22°58' E 113°32'6184636117.5
2015-Apr-13 13:31N 49°17' W 123°05'53805581.7
2015-Apr-13 12:33N 31°22' E 121°40'5380150143.1
2015-Apr-13 12:31N 49°17' W 123°05'53805497.8
2015-Apr-13 11:32N 31°22' E 121°40'5380248316.7
2015-Apr-13 11:31N 49°17' W 123°05'0 0.0
2015-Apr-13 10:31N 49°17' W 123°05'5380717350.8
2015-Apr-13 10:31N 31°22' E 121°40'1332.0
2015-Apr-13 10:07N 31°21' E 121°26'1321.9
2015-Apr-13 09:32N 31°22' E 121°40'5380276691.9
2015-Apr-13 09:31N 49°17' W 123°05'539079202.7
2015-Apr-13 09:27N 31°21' E 121°27'1112.4
2015-Apr-13 08:33N 31°22' E 121°40'5380215205.6
2015-Apr-13 08:31N 49°17' W 123°05'53891616627.9
2015-Apr-13 08:31N 31°22' E 121°29'1010.3
2015-Apr-13 07:32N 31°22' E 121°40'5380605265.3
2015-Apr-13 07:31N 49°17' W 123°05'0 0.0
2015-Apr-13 06:31N 49°17' W 123°05'0 0.0
2015-Apr-13 05:31N 49°17' W 123°05'0 0.0
2015-Apr-13 04:31N 49°17' W 123°05'539725804.3
2015-Apr-13 04:19N 31°11' E 121°29'3 3.8
2015-Apr-13 03:33N 31°09' E 121°27'5401136919.4
2015-Apr-13 03:31N 49°17' W 123°05'538016020.4
2015-Apr-13 03:11N 31°22' E 121°40'0 0.0
2015-Apr-13 02:32N 31°22' E 121°40'5380395279.3
2015-Apr-13 02:31N 49°17' W 123°05'3 3.6
2015-Apr-13 01:33N 49°18' W 123°10'5376165412.9
2015-Apr-13 01:31N 31°22' E 121°40'0 0.0
2015-Apr-13 00:33N 31°22' E 121°40'5376586438.6
2015-Apr-13 00:33N 49°18' W 123°11'2 1.9
2015-Apr-12 23:33N 49°19' W 123°09'537619353209.0
2015-Apr-12 23:33N 31°22' E 121°40'53775337.3
2015-Apr-12 22:33N 49°19' W 123°08'5377265184.6
2015-Apr-12 22:32N 31°22' E 121°40'934036037.7
2015-Apr-12 22:16N 41°28' W 071°21'22333141.7
2015-Apr-12 21:33N 49°17' W 123°10'5377395035.6
2015-Apr-12 21:32N 31°22' E 121°40'53785361.6
2015-Apr-12 20:32N 49°17' W 123°08'5378411925.6
2015-Apr-12 20:32N 31°22' E 121°40'0 0.0
2015-Apr-12 19:34N 31°22' E 121°40'53782420066.5
2015-Apr-12 19:33N 49°17' W 123°08'53785304.3
2015-Apr-12 18:33N 31°22' E 121°40'53751935040.9
2015-Apr-12 18:32N 49°18' W 123°11'0 0.4
2015-Apr-12 17:33N 49°18' W 123°11'5375372145.7
2015-Apr-12 17:33N 31°22' E 121°40'0 0.1
2015-Apr-12 16:33N 31°22' E 121°40'537669113.9
2015-Apr-12 16:28N 49°17' W 123°11'1 1.2
2015-Apr-12 15:33N 49°18' W 123°10'5376358395.9
2015-Apr-12 15:33N 31°22' E 121°40'6704099.8
2015-Apr-12 15:23N 22°50' E 113°35'9460396000.6
2015-Apr-12 15:21N 41°28' W 071°21'935011635.3
2015-Apr-12 14:33N 31°03' E 121°29'5405202685.6
2015-Apr-12 14:31N 49°17' W 123°05'6184505995.3
2015-Apr-12 14:31N 22°58' E 113°32'665140855.5
2015-Apr-12 14:30N 31°22' E 121°40'0 0.1
2015-Apr-12 13:33N 31°22' E 121°40'66291695.7
2015-Apr-12 13:32N 23°06' E 113°27'6411703.0
2015-Apr-12 13:09N 31°03' E 121°29'6411069.6
2015-Apr-12 12:34N 23°06' E 113°27'662340588.4
2015-Apr-12 12:33N 31°22' E 121°40'2245.4
2015-Apr-12 12:05N 31°03' E 121°29'6411224.4
2015-Apr-12 11:34N 23°06' E 113°27'66230178.9
2015-Apr-12 11:32N 31°22' E 121°40'1855.4
2015-Apr-12 11:12N 31°07' E 121°28'644994.7
2015-Apr-12 10:34N 23°06' E 113°27'64659672.1
2015-Apr-12 10:33N 31°10' E 121°28'16556.9
2015-Apr-12 10:31N 31°22' E 121°40'662689.3
2015-Apr-12 09:34N 23°06' E 113°27'66216789.8
2015-Apr-12 09:31N 31°22' E 121°40'662686.1
2015-Apr-12 08:33N 23°06' E 113°27'66219542.1
2015-Apr-12 08:31N 31°22' E 121°40'663686.3
2015-Apr-12 07:33N 23°05' E 113°26'66319571.4
2015-Apr-12 07:31N 31°22' E 121°40'957.7
2015-Apr-12 07:22N 31°22' E 121°30'0 0.0
2015-Apr-12 06:33N 31°22' E 121°30'65763953.9
2015-Apr-12 06:33N 23°05' E 113°26'66329117.3
2015-Apr-12 06:31N 31°22' E 121°40'663687.1
2015-Apr-12 05:33N 23°05' E 113°26'66355525.3
2015-Apr-12 05:33N 31°22' E 121°40'91794.4
2015-Apr-12 05:32N 31°22' E 121°30'657657.5
2015-Apr-12 04:32N 23°05' E 113°26'66218185.1
2015-Apr-12 04:30N 31°20' E 121°40'662696.8
2015-Apr-12 03:33N 23°05' E 113°26'66191569.3
2015-Apr-12 03:33N 31°21' E 121°38'2 2.2
2015-Apr-12 02:33N 31°22' E 121°35'66195136.6
2015-Apr-12 02:33N 23°05' E 113°26'661669.0
2015-Apr-12 01:33N 31°22' E 121°35'661118922.4
2015-Apr-12 01:33N 23°05' E 113°26'9737945.4
2015-Apr-12 01:26N 38°53' E 117°42'51765726.2
2015-Apr-12 00:32N 49°17' W 123°05'6183890337.9
2015-Apr-12 00:31N 23°05' E 113°26'6638459.3
2015-Apr-12 00:26N 31°23' E 121°38'663732.7
2015-Apr-11 23:32N 23°05' E 113°26'6639898.6
2015-Apr-11 23:28N 31°23' E 121°38'537633602.4
2015-Apr-11 23:19N 49°17' W 123°11'61788117.2
2015-Apr-11 22:33N 23°05' E 113°26'66323160.6
2015-Apr-11 22:31N 31°23' E 121°38'5376537640.6
2015-Apr-11 22:31N 49°17' W 123°11'61786465.5
2015-Apr-11 21:33N 23°05' E 113°26'66319238.3
2015-Apr-11 21:31N 31°23' E 121°38'5376569260.4
2015-Apr-11 21:31N 49°17' W 123°11'61786459.8
2015-Apr-11 20:33N 23°05' E 113°26'61803707801.3
2015-Apr-11 20:33N 49°17' W 123°10'5378165475.6
2015-Apr-11 20:31N 31°23' E 121°38'0 0.0
2015-Apr-11 19:33N 31°23' E 121°38'662297777.0
2015-Apr-11 19:33N 23°06' E 113°27'61784448132.9
2015-Apr-11 19:33N 49°19' W 123°09'61786184.8
2015-Apr-11 18:33N 23°06' E 113°27'617822240029.2
2015-Apr-11 18:33N 49°18' W 123°10'5377132586.0
2015-Apr-11 18:31N 31°23' E 121°38'53725605.7
2015-Apr-11 17:33N 49°20' W 123°15'617311110903.4
2015-Apr-11 17:33N 23°06' E 113°27'662794061.1
2015-Apr-11 17:33N 31°23' E 121°38'9388359557.7
2015-Apr-11 17:32N 41°21' W 072°18'94929785.2
2015-Apr-11 16:33N 23°06' E 113°27'662595561.9
2015-Apr-11 16:33N 31°23' E 121°38'53746449158.6
2015-Apr-11 16:33N 49°20' W 123°12'219921458.0
2015-Apr-11 16:27N 41°21' W 072°18'949210602.0
2015-Apr-11 15:33N 23°06' E 113°27'61785560128.5
2015-Apr-11 15:33N 49°19' W 123°09'538119371088.8
2015-Apr-11 15:33N 31°25' E 121°30'938091515.7
2015-Apr-11 15:27N 41°21' W 072°18'949610597.1
2015-Apr-11 14:33N 23°04' E 113°29'618111126585.9
2015-Apr-11 14:33N 49°17' W 123°05'53866463718.8
2015-Apr-11 14:33N 31°31' E 121°21'10 9.6
2015-Apr-11 13:33N 31°39' E 121°14'6645609.7
2015-Apr-11 13:26N 22°56' E 113°33'  

Dump ship's entire track history